createdAt,value
2024-01-09T00:00:08.687Z,102904.63
2024-01-09T00:10:10.191Z,102900.75
2024-01-09T00:20:12.111Z,102894.72
2024-01-09T00:30:14.168Z,102888.91
2024-01-09T00:40:15.585Z,102892.31
2024-01-09T00:50:17.214Z,102885.06
2024-01-09T01:00:19.597Z,102880.34
2024-01-09T01:10:21.613Z,102887.47
2024-01-09T01:20:23.126Z,102898.63
2024-01-09T01:30:24.922Z,102898.50
2024-01-09T01:40:26.389Z,102905.94
2024-01-09T01:50:29.583Z,102894.34
2024-01-09T02:00:32.031Z,102900.00
2024-01-09T02:10:33.474Z,102890.38
2024-01-09T02:20:34.946Z,102898.25
2024-01-09T02:30:37.949Z,102886.22
2024-01-09T02:40:40.024Z,102881.03
2024-01-09T02:50:41.483Z,102872.31
2024-01-09T03:00:42.949Z,102881.94
2024-01-09T03:10:44.309Z,102873.47
2024-01-09T03:20:45.727Z,102868.75
2024-01-09T03:30:47.150Z,102857.50
2024-01-09T03:40:48.600Z,102874.97
2024-01-09T03:50:50.416Z,102870.09
2024-01-09T04:00:52.060Z,102874.53
2024-01-09T04:10:53.506Z,102857.78
2024-01-09T04:20:55.101Z,102858.50
2024-01-09T04:30:57.372Z,102854.09
2024-01-09T04:40:58.877Z,102845.31
2024-01-09T04:51:00.409Z,102842.22
2024-01-09T05:01:01.930Z,102837.00
2024-01-09T05:11:03.822Z,102832.41
2024-01-09T05:21:05.377Z,102828.00
2024-01-09T05:31:06.786Z,102822.66
2024-01-09T05:41:08.248Z,102824.88
2024-01-09T05:51:10.408Z,102828.56
2024-01-09T06:01:12.254Z,102849.78
2024-01-09T06:11:13.824Z,102846.22
2024-01-09T06:21:15.685Z,102858.09
2024-01-09T06:31:18.327Z,102857.66
2024-01-09T06:41:19.797Z,102851.25
2024-01-09T06:51:21.264Z,102856.56
2024-01-09T07:01:22.869Z,102855.56
2024-01-09T07:11:24.341Z,102869.03
2024-01-09T07:21:25.721Z,102869.22
2024-01-09T07:31:27.122Z,102880.47
2024-01-09T07:41:28.517Z,102887.25
2024-01-09T07:51:30.020Z,102895.00
2024-01-09T08:01:32.153Z,102891.25
2024-01-09T08:11:33.580Z,102898.09
2024-01-09T08:21:40.831Z,102902.09
2024-01-09T08:31:48.918Z,102899.59
2024-01-09T08:41:50.358Z,102910.13
2024-01-09T08:51:51.937Z,102916.63
2024-01-09T09:01:54.736Z,102915.75
2024-01-09T09:11:56.163Z,102917.84
2024-01-09T09:21:57.784Z,102924.06
2024-01-09T09:31:59.218Z,102920.81
2024-01-09T09:42:00.823Z,102926.88
2024-01-09T09:52:02.686Z,102920.38
2024-01-09T10:02:07.480Z,102918.13
2024-01-09T10:12:09.075Z,102914.53
2024-01-09T10:22:10.457Z,102902.06
2024-01-09T10:32:15.273Z,102894.00
2024-01-09T10:42:17.598Z,102887.56
2024-01-09T10:52:19.357Z,102876.06
2024-01-09T11:02:23.997Z,102875.22
2024-01-09T11:12:33.053Z,102863.25
2024-01-09T11:22:38.232Z,102854.88
2024-01-09T11:32:39.933Z,102832.03
2024-01-09T11:42:49.950Z,102826.81
2024-01-09T11:52:51.919Z,102802.88
2024-01-09T12:02:53.339Z,102789.19
2024-01-09T12:13:02.852Z,102788.34
2024-01-09T12:23:04.603Z,102775.47
2024-01-09T12:33:06.208Z,102768.66
2024-01-09T12:43:10.010Z,102756.44
2024-01-09T12:53:11.402Z,102748.84
2024-01-09T13:03:12.845Z,102734.78
2024-01-09T13:13:14.294Z,102714.53
2024-01-09T13:33:20.131Z,102716.06
2024-01-09T13:43:21.786Z,102732.75
2024-01-09T13:53:27.388Z,102712.97
2024-01-09T14:03:31.249Z,102713.34
2024-01-09T14:13:32.707Z,102714.06
2024-01-09T14:23:34.795Z,102698.84
2024-01-09T14:33:36.280Z,102693.41
2024-01-09T14:43:39.737Z,102684.00
2024-01-09T14:53:42.633Z,102681.47
2024-01-09T15:03:45.736Z,102692.28
2024-01-09T15:13:47.181Z,102691.13
2024-01-09T15:23:52.130Z,102684.69
2024-01-09T15:33:53.613Z,102685.59
2024-01-09T15:43:55.280Z,102673.19
2024-01-09T15:53:56.711Z,102677.25
2024-01-09T16:03:58.319Z,102691.19
2024-01-09T16:13:59.735Z,102664.09
2024-01-09T16:24:01.166Z,102656.88
2024-01-09T16:34:02.774Z,102648.91
2024-01-09T16:44:04.845Z,102651.31
2024-01-09T16:54:06.282Z,102653.59
2024-01-09T17:04:08.265Z,102659.19
2024-01-09T17:14:09.758Z,102665.25
2024-01-09T17:24:11.548Z,102653.38
2024-01-09T17:34:12.986Z,102648.81
2024-01-09T17:44:15.140Z,102659.44
2024-01-09T17:54:16.545Z,102673.38
2024-01-09T18:04:20.363Z,102681.59
2024-01-09T18:14:21.921Z,102677.06
2024-01-09T18:24:24.082Z,102687.06
2024-01-09T18:34:25.761Z,102685.44
2024-01-09T18:44:27.998Z,102683.63
2024-01-09T18:54:29.648Z,102688.56
2024-01-09T19:04:32.824Z,102680.59
2024-01-09T19:14:34.246Z,102689.38
2024-01-09T19:24:39.121Z,102693.94
2024-01-09T19:34:43.496Z,102696.31
2024-01-09T19:44:46.761Z,102694.91
2024-01-09T19:54:48.275Z,102691.88
2024-01-09T20:04:49.771Z,102687.41
2024-01-09T20:14:51.461Z,102688.09
2024-01-09T20:24:52.877Z,102679.66
2024-01-09T20:34:54.853Z,102683.22
2024-01-09T20:44:56.294Z,102664.13
2024-01-09T20:54:57.690Z,102665.53
2024-01-09T21:05:01.705Z,102679.81
2024-01-09T21:15:03.815Z,102675.88
2024-01-09T21:25:05.672Z,102673.72
2024-01-09T21:35:08.277Z,102684.44
2024-01-09T21:45:11.234Z,102675.66
2024-01-09T21:55:12.728Z,102671.84
2024-01-09T22:05:14.214Z,102660.19
2024-01-09T22:15:15.650Z,102679.72
2024-01-09T22:25:17.159Z,102669.06
2024-01-09T22:35:19.463Z,102672.63
2024-01-09T22:45:20.898Z,102676.78
2024-01-09T22:55:22.255Z,102669.81
2024-01-09T23:05:23.852Z,102653.91
2024-01-09T23:15:26.590Z,102654.88
2024-01-09T23:25:28.049Z,102638.34
2024-01-09T23:35:29.450Z,102629.19
2024-01-09T23:45:30.856Z,102639.47
2024-01-09T23:55:32.286Z,102623.13
